Flight Track Log - Related Links

Times and Time Zones

All times are in EDT time to prevent confusion due to time zone crossing. See the N141AJ flight status page for this flight to view local times or setup timezone preferences in your user account.

Time Position Orientation Groundspeed Altitude Reporting Facility
EDT Latitude Longitude Course Direction KTS MPH feet Rate Location/Type
Tue 01:25:12 PM 42.0281 -80.1864 126° Southeast 155 178 3,200  Level Cleveland Center
Tue 01:26:12 PM 42.0028 -80.1417 127° Southeast 155 178 4,200 1,100 Climbing Cleveland Center
Tue 01:27:12 PM 41.9756 -80.0861 123° Southeast 160 184 5,400 1,100 Climbing Cleveland Center
Tue 01:28:12 PM 41.9483 -80.0361 126° Southeast 160 184 6,400 1,100 Climbing Cleveland Center
Tue 01:29:00 PM 41.8766 -79.7879 120° Southeast  Level Estimated
Tue 01:29:12 PM 41.9231 -79.9831 123° Southeast 165 190 7,600  Level Cleveland Center
Tue 01:30:00 PM 41.8420 -79.7239 126° Southeast  Level Estimated
Tue 01:30:12 PM 41.8936 -79.9333 128° Southeast 170 196 8,400  Level Cleveland Center
Tue 01:32:12 PM 41.8322 -79.8142 125° Southeast 194 223 10,300 933 Climbing Cleveland Center
Tue 01:33:12 PM 41.7986 -79.7503 125° Southeast 200 230 11,200 950 Climbing Cleveland Center
Tue 01:34:12 PM 41.7606 -79.6842 128° Southeast 201 231 12,200 950 Climbing Cleveland Center
Tue 01:35:12 PM 41.7331 -79.6289 124° Southeast 201 231 13,100 900 Climbing Cleveland Center
Tue 01:36:12 PM 41.7033 -79.5681 123° Southeast 201 231 14,000 800 Climbing Cleveland Center
Tue 01:37:12 PM 41.6694 -79.5075 127° Southeast 201 231 14,700 600 Climbing Cleveland Center
Tue 01:38:12 PM 41.6311 -79.4358 126° Southeast 208 239 15,200 250 Climbing Cleveland Center
Tue 01:39:12 PM 41.5931 -79.3669 126° Southeast 220 253 15,200  Level Cleveland Center
Tue 01:40:12 PM 41.5567 -79.2956 124° Southeast 225 259 15,200  Level Cleveland Center
Tue 01:41:12 PM 41.5183 -79.2214 125° Southeast 231 266 15,200  Level Cleveland Center
Tue 01:42:12 PM 41.4800 -79.1503 126° Southeast 231 266 15,200  Level Cleveland Center
Tue 01:43:12 PM 41.4414 -79.0792 126° Southeast 236 272 15,200  Level Cleveland Center
Tue 01:44:12 PM 41.4050 -79.0078 124° Southeast 241 277 15,200  Level Cleveland Center
Tue 01:45:12 PM 41.3667 -78.9369 126° Southeast 241 277 15,200  Level Cleveland Center
Tue 01:46:12 PM 41.3364 -78.8769 124° Southeast 241 277 15,200  Level Cleveland Center
Tue 01:47:12 PM 41.2978 -78.8033 125° Southeast 241 277 15,200  Level Cleveland Center
Tue 01:48:12 PM 41.2592 -78.7325 126° Southeast 241 277 15,200  Level Cleveland Center
Tue 01:49:12 PM 41.2206 -78.6617 126° Southeast 241 277 15,200  Level Cleveland Center
Tue 01:50:12 PM 41.1817 -78.5883 125° Southeast 241 277 15,200  Level Cleveland Center
Tue 01:51:12 PM 41.1431 -78.5178 126° Southeast 241 277 15,200  Level Cleveland Center
Tue 01:52:12 PM 41.1042 -78.4503 127° Southeast 241 277 15,200  Level Cleveland Center
Tue 01:54:03 PM 41.0258 -78.3078 126° Southeast 261 300 15,200 -174 Level New York Center
Tue 01:55:04 PM 40.9844 -78.2344 127° Southeast 256 295 14,700 -496 Descending New York Center
Tue 01:56:04 PM 40.9433 -78.1614 127° Southeast 256 295 14,200 -550 Descending New York Center
Tue 01:57:04 PM 40.9044 -78.0831 123° Southeast 256 295 13,600 -595 Descending New York Center
Tue 01:58:05 PM 40.8631 -78.0072 126° Southeast 256 295 13,000 -454 Descending New York Center
Tue 01:59:03 PM 40.8217 -77.9342 127° Southeast 256 295 12,700 -356 Descending New York Center
Tue 02:00:03 PM 40.7822 -77.8617 126° Southeast 251 289 12,300 -496 Descending New York Center
Tue 02:01:04 PM 40.7428 -77.7917 127° Southeast 246 283 11,700 -492 Descending New York Center
Tue 02:02:05 PM 40.6922 -77.7289 137° Southeast 246 283 11,300 -446 Descending New York Center
Tue 02:03:05 PM 40.6481 -77.6669 133° Southeast 246 283 10,800 -496 Descending New York Center
Tue 02:04:06 PM 40.5972 -77.6072 138° Southeast 241 277 10,300 -496 Descending New York Center
Tue 02:05:06 PM 40.5608 -77.5489 129° Southeast 235 270 9,800 -615 Descending New York Center
Tue 02:06:03 PM 40.5239 -77.4661 120° Southeast 235 270 9,100 -410 Descending New York Center
Tue 02:07:03 PM 40.4958 -77.4089 123° Southeast 221 254 9,000 -50 Descending New York Center
Tue 02:08:04 PM 40.4583 -77.3369 124° Southeast 216 249 9,000 -443 Level New York Center
Tue 02:09:05 PM 40.4261 -77.2794 126° Southeast 221 254 8,100 -950 Descending New York Center
Tue 02:10:04 PM 40.3703 -77.2333 148° Southeast 216 249 7,100 -1,059 Descending New York Center
Tue 02:11:04 PM 40.3267 -77.1883 142° Southeast 221 254 6,000 -1,339 Descending New York Center
Tue 02:12:05 PM 40.3000 -77.1042 113° Southeast 221 254 4,400 -984 Descending New York Center
Tue 02:13:06 PM 40.2806 -77.0369 111° Southeast 221 254 4,000 -814 Descending New York Center
Tue 02:14:03 PM 40.2575 -76.9617 112° Southeast 209 241 2,800 -807 Descending New York Center
Tue 02:15:05 PM 40.2342 -76.8914 113° Southeast 204 235 2,400 3,049 Descending New York Center
Tue 02:16:05 PM 40.2128 -76.8217 112° Southeast 204 235 9,000 3,356 Climbing New York Center
Tue 02:17:03 PM 40.1892 -76.7517 114° Southeast 204 235 9,000  Level New York Center
Tue 02:18:03 PM 40.1675 -76.6817 112° Southeast 204 235 9,000  Level New York Center
Tue 02:19:05 PM 40.1586 -76.6539 113° Southeast 204 235 9,000  Level New York Center

Login

Don't have an account? Register now (free) for customized features, flight alerts, and more!